createdAt,value
2022-12-11T00:01:19.794Z,13.70
2022-12-11T00:03:48.721Z,13.73
2022-12-11T00:06:21.652Z,14.50
2022-12-11T00:08:52.686Z,12.50
2022-12-11T00:11:22.678Z,11.50
2022-12-11T00:13:51.406Z,11.45
2022-12-11T00:18:55.618Z,13.45
2022-12-11T00:21:25.594Z,11.63
2022-12-11T00:23:54.354Z,13.65
2022-12-11T00:28:55.556Z,13.82
2022-12-11T00:31:25.119Z,12.35
2022-12-11T00:33:53.713Z,11.95
2022-12-11T00:36:26.156Z,13.30
2022-12-11T00:38:55.386Z,13.48
2022-12-11T00:41:24.022Z,13.70
2022-12-11T00:43:52.504Z,9.68
2022-12-11T00:46:22.059Z,15.05
2022-12-11T00:51:19.742Z,12.43
2022-12-11T00:53:49.696Z,13.57
2022-12-11T00:56:22.027Z,14.23
2022-12-11T00:58:51.181Z,11.48
2022-12-11T01:01:21.777Z,13.60
2022-12-11T01:03:50.727Z,11.52
2022-12-11T01:06:21.286Z,12.15
2022-12-11T01:09:12.685Z,15.20
2022-12-11T01:11:42.012Z,14.75
2022-12-11T01:14:11.416Z,13.02
2022-12-11T01:16:40.090Z,15.80
2022-12-11T01:21:36.650Z,14.45
2022-12-11T01:24:07.230Z,11.75
2022-12-11T01:26:36.165Z,14.30
2022-12-11T01:29:04.613Z,15.80
2022-12-11T01:31:33.903Z,15.43
2022-12-11T01:34:02.316Z,12.15
2022-12-11T01:36:30.819Z,11.70
2022-12-11T01:38:59.419Z,15.32
2022-12-11T01:41:29.394Z,14.98
2022-12-11T01:44:03.302Z,16.00
2022-12-11T01:46:36.531Z,11.73
2022-12-11T01:49:08.733Z,13.73
2022-12-11T01:51:41.707Z,13.32
2022-12-11T01:54:14.257Z,14.02
2022-12-11T01:56:46.202Z,22.85
2022-12-11T01:59:19.068Z,13.73
2022-12-11T02:01:51.698Z,12.25
2022-12-11T02:04:21.408Z,14.27
2022-12-11T02:06:54.999Z,27.70
2022-12-11T02:09:26.257Z,15.02
2022-12-11T02:12:05.451Z,16.20
2022-12-11T02:14:42.280Z,18.73
2022-12-11T02:17:16.047Z,17.55
2022-12-11T02:19:59.323Z,15.80
2022-12-11T02:22:41.971Z,20.63
2022-12-11T02:25:22.247Z,10.00
2022-12-11T02:27:58.502Z,25.20
2022-12-11T02:30:28.828Z,16.65
2022-12-11T02:32:59.102Z,20.52
2022-12-11T02:35:32.850Z,11.15
2022-12-11T02:38:10.704Z,22.20
2022-12-11T02:40:42.161Z,19.00
2022-12-11T02:43:14.295Z,15.65
2022-12-11T02:45:46.731Z,11.68
2022-12-11T02:48:18.647Z,13.23
2022-12-11T02:50:49.304Z,14.82
2022-12-11T02:53:21.518Z,15.88
2022-12-11T02:55:56.047Z,18.88
2022-12-11T02:58:28.023Z,15.38
2022-12-11T03:00:58.371Z,16.65
2022-12-11T03:03:27.126Z,16.48
2022-12-11T03:05:55.546Z,8.20
2022-12-11T03:08:24.197Z,16.10
2022-12-11T03:10:52.692Z,14.23
2022-12-11T03:13:23.710Z,11.20
2022-12-11T03:16:05.720Z,13.82
2022-12-11T03:18:40.791Z,17.55
2022-12-11T03:21:16.072Z,9.90
2022-12-11T03:23:53.733Z,14.98
2022-12-11T03:26:24.299Z,9.70
2022-12-11T03:29:00.110Z,4.85
2022-12-11T03:31:36.468Z,18.45
2022-12-11T03:34:12.549Z,12.55
2022-12-11T03:36:43.111Z,10.27
2022-12-11T03:39:17.060Z,21.95
2022-12-11T03:41:47.567Z,15.38
2022-12-11T03:44:18.290Z,12.07
2022-12-11T03:46:49.745Z,9.52
2022-12-11T03:49:21.089Z,6.57
2022-12-11T03:51:53.410Z,5.93
2022-12-11T03:54:22.362Z,6.97
2022-12-11T03:56:54.856Z,15.23
2022-12-11T03:59:23.463Z,9.85
2022-12-11T04:01:53.494Z,19.02
2022-12-11T04:04:22.251Z,10.60
2022-12-11T04:09:19.020Z,11.38
2022-12-11T04:14:33.770Z,10.98
2022-12-11T04:17:03.806Z,9.82
2022-12-11T04:19:52.429Z,8.93
2022-12-11T04:25:21.246Z,10.50
2022-12-11T04:27:53.185Z,8.57
2022-12-11T04:30:26.933Z,9.82
2022-12-11T04:32:59.376Z,9.65
2022-12-11T04:35:30.666Z,6.00
2022-12-11T04:37:59.427Z,6.15
2022-12-11T04:42:56.081Z,15.18
2022-12-11T04:45:24.565Z,17.00
2022-12-11T04:47:53.013Z,10.10
2022-12-11T04:50:23.225Z,29.75
2022-12-11T04:52:51.783Z,16.52
2022-12-11T04:55:20.498Z,21.30
2022-12-11T05:00:18.524Z,23.45
2022-12-11T05:02:47.172Z,10.23
2022-12-11T05:05:15.639Z,18.77
2022-12-11T05:08:01.957Z,10.65
2022-12-11T05:10:30.607Z,37.88
2022-12-11T05:12:59.253Z,39.65
2022-12-11T05:17:55.781Z,12.02
2022-12-11T05:20:24.317Z,13.15
2022-12-11T05:25:23.012Z,5.35
2022-12-11T05:27:51.415Z,9.80
2022-12-11T05:30:20.044Z,5.10
2022-12-11T05:35:16.789Z,8.35
2022-12-11T05:37:45.375Z,13.98
2022-12-11T05:40:16.013Z,9.30
2022-12-11T05:42:44.462Z,10.13
2022-12-11T05:45:13.380Z,5.97
2022-12-11T05:47:42.005Z,15.95
2022-12-11T05:50:11.177Z,27.90
2022-12-11T05:52:39.728Z,8.50
2022-12-11T05:55:09.897Z,17.20
2022-12-11T05:57:40.012Z,11.73
2022-12-11T06:00:13.560Z,12.40
2022-12-11T06:02:42.186Z,14.52
2022-12-11T06:07:39.653Z,12.82
2022-12-11T06:10:08.886Z,12.48
2022-12-11T06:12:38.350Z,12.10
2022-12-11T06:15:09.754Z,12.32
2022-12-11T06:17:38.535Z,8.27
2022-12-11T06:20:14.581Z,8.13
2022-12-11T06:22:43.354Z,11.52
2022-12-11T06:27:46.087Z,8.88
2022-12-11T06:30:16.692Z,9.38
2022-12-11T06:32:45.519Z,14.15
2022-12-11T06:37:42.664Z,13.63
2022-12-11T06:42:40.669Z,7.57
2022-12-11T06:45:10.592Z,11.95
2022-12-11T06:47:40.576Z,9.35
2022-12-11T06:50:09.651Z,14.77
2022-12-11T06:52:38.050Z,9.43
2022-12-11T06:55:07.746Z,18.13
2022-12-11T06:57:36.287Z,14.80
2022-12-11T07:00:05.880Z,13.40
2022-12-11T07:02:34.493Z,16.98
2022-12-11T07:05:05.069Z,13.27
2022-12-11T07:07:33.711Z,17.10
2022-12-11T07:10:08.092Z,27.33
2022-12-11T07:12:37.878Z,12.15
2022-12-11T07:15:07.414Z,15.63
2022-12-11T07:17:36.095Z,11.80
2022-12-11T07:20:06.835Z,13.10
2022-12-11T07:22:35.459Z,21.85
2022-12-11T07:25:03.864Z,20.38
2022-12-11T07:27:32.550Z,21.65
2022-12-11T07:30:00.978Z,19.23
2022-12-11T07:32:30.712Z,19.55
2022-12-11T07:34:59.208Z,16.20
2022-12-11T07:37:29.162Z,15.55
2022-12-11T07:39:57.736Z,14.40
2022-12-11T07:42:26.303Z,8.50
2022-12-11T07:44:55.017Z,15.27
2022-12-11T07:49:51.551Z,16.13
2022-12-11T07:52:19.945Z,17.25
2022-12-11T07:54:49.973Z,19.00
2022-12-11T07:57:18.466Z,13.45
2022-12-11T07:59:48.197Z,15.27
2022-12-11T08:02:18.978Z,14.07
2022-12-11T08:04:47.595Z,21.08
2022-12-11T08:07:16.117Z,13.00
2022-12-11T08:09:44.621Z,11.63
2022-12-11T08:12:14.679Z,7.85
2022-12-11T08:14:43.279Z,16.30
2022-12-11T08:17:12.983Z,18.00
2022-12-11T08:19:45.088Z,18.05
2022-12-11T08:22:14.607Z,18.40
2022-12-11T08:24:43.450Z,15.25
2022-12-11T08:27:12.176Z,18.20
2022-12-11T08:29:43.632Z,14.90
2022-12-11T08:32:14.063Z,18.95
2022-12-11T08:34:53.894Z,15.68
2022-12-11T08:37:26.102Z,16.33
2022-12-11T08:40:25.646Z,10.73
2022-12-11T08:43:06.270Z,12.25
2022-12-11T08:45:39.327Z,13.57
2022-12-11T08:48:08.214Z,14.75
2022-12-11T08:53:05.231Z,12.57
2022-12-11T08:55:33.815Z,16.55
2022-12-11T08:58:02.311Z,18.38
2022-12-11T09:00:32.664Z,17.73
2022-12-11T09:03:02.619Z,14.48
2022-12-11T09:05:31.585Z,18.42
2022-12-11T09:08:00.214Z,21.05
2022-12-11T09:12:57.040Z,19.23
2022-12-11T09:15:25.550Z,14.52
2022-12-11T09:17:55.751Z,14.60
2022-12-11T09:20:25.812Z,22.35
2022-12-11T09:22:54.399Z,15.68
2022-12-11T09:25:22.900Z,10.50
2022-12-11T09:27:51.410Z,10.70
2022-12-11T09:30:20.215Z,14.07
2022-12-11T09:35:17.226Z,15.95
2022-12-11T09:37:47.184Z,15.50
2022-12-11T09:40:15.995Z,9.02
2022-12-11T09:42:54.433Z,11.43
2022-12-11T09:45:22.929Z,17.00
2022-12-11T09:47:55.185Z,17.63
2022-12-11T09:50:26.579Z,13.85
2022-12-11T09:53:06.246Z,13.63
2022-12-11T09:55:45.524Z,14.48
2022-12-11T09:58:24.386Z,13.50
2022-12-11T10:01:03.618Z,10.02
2022-12-11T10:03:47.059Z,15.43
2022-12-11T10:06:22.212Z,10.77
2022-12-11T10:09:04.685Z,13.07
2022-12-11T10:11:56.681Z,8.75
2022-12-11T10:14:34.372Z,13.18
2022-12-11T10:17:13.600Z,10.70
2022-12-11T10:19:45.457Z,11.55
2022-12-11T10:22:19.666Z,19.55
2022-12-11T10:25:10.639Z,9.38
2022-12-11T10:27:43.620Z,10.45
2022-12-11T10:30:18.362Z,9.23
2022-12-11T10:32:56.005Z,14.90
2022-12-11T10:35:33.526Z,10.68
2022-12-11T10:38:13.224Z,12.43
2022-12-11T10:40:45.975Z,13.93
2022-12-11T10:43:14.529Z,13.07
2022-12-11T10:45:52.772Z,10.15
2022-12-11T10:48:25.198Z,9.13
2022-12-11T10:51:00.215Z,9.73
2022-12-11T10:53:29.526Z,13.73
2022-12-11T10:56:00.114Z,11.43
2022-12-11T10:58:34.407Z,16.30
2022-12-11T11:01:11.763Z,14.23
2022-12-11T11:03:54.951Z,13.00
2022-12-11T11:06:25.915Z,14.65
2022-12-11T11:08:56.286Z,13.43
2022-12-11T11:11:29.543Z,9.70
2022-12-11T11:14:13.559Z,13.77
2022-12-11T11:16:44.507Z,12.55
2022-12-11T11:19:22.604Z,9.15
2022-12-11T11:21:54.844Z,13.15
2022-12-11T11:24:28.930Z,15.48
2022-12-11T11:27:14.741Z,12.20
2022-12-11T11:29:53.351Z,17.20
2022-12-11T11:32:25.454Z,14.60
2022-12-11T11:34:54.043Z,12.23
2022-12-11T11:37:33.702Z,15.07
2022-12-11T11:40:09.552Z,16.30
2022-12-11T11:42:47.008Z,15.90
2022-12-11T11:45:22.019Z,15.00
2022-12-11T11:48:00.133Z,13.60
2022-12-11T11:50:34.147Z,15.50
2022-12-11T11:53:07.552Z,15.65
2022-12-11T11:55:46.655Z,13.40
2022-12-11T11:58:23.097Z,13.43
2022-12-11T12:00:55.057Z,14.93
2022-12-11T12:03:25.557Z,17.73
2022-12-11T12:05:59.414Z,15.10
2022-12-11T12:08:42.967Z,19.17
2022-12-11T12:11:22.845Z,13.52
2022-12-11T12:14:17.645Z,16.48
2022-12-11T12:17:07.366Z,13.57
2022-12-11T12:19:47.885Z,15.02
2022-12-11T12:22:29.653Z,12.40
2022-12-11T12:25:11.925Z,13.70
2022-12-11T12:27:52.418Z,9.75
2022-12-11T12:30:24.307Z,16.52
2022-12-11T12:33:14.657Z,13.15
2022-12-11T12:36:06.807Z,16.50
2022-12-11T12:38:47.940Z,14.48
2022-12-11T12:41:22.129Z,12.05
2022-12-11T12:44:15.942Z,16.67
2022-12-11T12:46:59.849Z,17.92
2022-12-11T12:49:41.979Z,16.92
2022-12-11T12:52:16.978Z,13.45
2022-12-11T12:55:09.122Z,13.30
2022-12-11T12:57:59.808Z,15.52
2022-12-11T13:03:38.604Z,17.15
2022-12-11T13:06:10.668Z,12.50
2022-12-11T13:08:51.933Z,13.18
2022-12-11T13:11:47.883Z,10.38
2022-12-11T13:14:41.203Z,11.50
2022-12-11T13:22:25.758Z,11.23
2022-12-11T13:25:02.056Z,12.15
2022-12-11T13:27:40.352Z,8.48
2022-12-11T13:30:23.637Z,13.55
2022-12-11T13:33:17.402Z,15.85
2022-12-11T13:35:48.300Z,9.43
2022-12-11T13:38:20.723Z,12.77
2022-12-11T13:40:54.481Z,10.10
2022-12-11T13:43:27.526Z,12.35
2022-12-11T13:45:59.760Z,10.60
2022-12-11T13:48:30.635Z,12.05
2022-12-11T13:51:01.727Z,11.27
2022-12-11T13:53:31.136Z,10.40
2022-12-11T13:56:02.926Z,10.23
2022-12-11T13:58:35.974Z,11.90
2022-12-11T14:01:12.928Z,10.45
2022-12-11T14:03:44.900Z,10.18
2022-12-11T14:06:19.123Z,12.45
2022-12-11T14:08:51.803Z,14.48
2022-12-11T14:11:28.231Z,13.57
2022-12-11T14:13:59.563Z,12.23
2022-12-11T14:16:28.791Z,11.35
2022-12-11T14:19:02.878Z,13.95
2022-12-11T14:21:35.793Z,9.98
2022-12-11T14:24:06.793Z,12.90
2022-12-11T14:26:38.727Z,17.50
2022-12-11T14:29:08.185Z,13.68
2022-12-11T14:31:39.779Z,13.18
2022-12-11T14:34:14.890Z,12.95
2022-12-11T14:36:47.161Z,12.90
2022-12-11T14:39:25.115Z,13.18
2022-12-11T14:41:59.678Z,13.77
2022-12-11T14:44:36.775Z,16.02
2022-12-11T14:47:11.675Z,10.77
2022-12-11T14:49:48.684Z,13.40
2022-12-11T14:52:25.324Z,12.95
2022-12-11T14:54:58.412Z,13.55
2022-12-11T14:57:32.151Z,10.13
2022-12-11T15:00:01.144Z,11.43
2022-12-11T15:02:33.485Z,14.98
2022-12-11T15:05:19.209Z,9.50
2022-12-11T15:08:00.526Z,12.70
2022-12-11T15:10:36.090Z,11.25
2022-12-11T15:13:06.102Z,14.48
2022-12-11T15:15:47.431Z,13.55
2022-12-11T15:18:25.938Z,12.82
2022-12-11T15:21:00.428Z,13.27
2022-12-11T15:23:36.452Z,11.45
2022-12-11T15:26:08.198Z,10.32
2022-12-11T15:28:40.889Z,14.10
2022-12-11T15:31:26.613Z,14.57
2022-12-11T15:33:55.913Z,14.63
2022-12-11T15:36:27.637Z,13.95
2022-12-11T15:38:58.309Z,13.07
2022-12-11T15:41:27.228Z,9.40
2022-12-11T15:43:59.247Z,17.23
2022-12-11T15:46:28.496Z,10.57
2022-12-11T15:48:58.863Z,9.38
2022-12-11T15:51:27.775Z,11.43
2022-12-11T15:53:58.855Z,9.93
2022-12-11T15:56:28.069Z,11.20
2022-12-11T15:59:18.606Z,12.00
2022-12-11T16:01:47.766Z,13.27
2022-12-11T16:04:17.947Z,12.43
2022-12-11T16:06:49.266Z,13.35
2022-12-11T16:09:20.060Z,11.90
2022-12-11T16:11:48.865Z,7.95
2022-12-11T16:14:21.268Z,11.43
2022-12-11T16:16:53.032Z,8.15
2022-12-11T16:19:21.712Z,12.32
2022-12-11T16:22:04.807Z,6.40
2022-12-11T16:24:39.797Z,15.23
2022-12-11T16:27:10.755Z,9.65
2022-12-11T16:29:41.324Z,10.95
2022-12-11T16:32:35.605Z,8.00
2022-12-11T16:35:07.655Z,12.40
2022-12-11T16:37:38.564Z,10.27
2022-12-11T16:40:14.790Z,10.40
2022-12-11T16:42:48.521Z,11.80
2022-12-11T16:45:25.371Z,8.45
2022-12-11T16:48:08.913Z,9.07
2022-12-11T16:50:40.628Z,10.77
2022-12-11T16:53:17.712Z,11.20
2022-12-11T16:55:52.074Z,9.88
2022-12-11T16:58:29.788Z,8.75
2022-12-11T17:01:05.030Z,10.20
2022-12-11T17:03:33.787Z,11.02
2022-12-11T17:06:02.378Z,10.25
2022-12-11T17:11:01.051Z,8.68
2022-12-11T17:13:35.697Z,10.35
2022-12-11T17:16:06.866Z,7.47
2022-12-11T17:18:41.077Z,10.07
2022-12-11T17:21:13.780Z,9.60
2022-12-11T17:23:42.908Z,10.30
2022-12-11T17:26:13.364Z,9.15
2022-12-11T17:28:46.744Z,8.23
2022-12-11T17:31:21.752Z,7.68
2022-12-11T17:34:23.860Z,9.23
2022-12-11T17:36:54.234Z,8.93
2022-12-11T17:39:22.696Z,8.10
2022-12-11T17:41:53.412Z,7.07
2022-12-11T17:44:22.922Z,6.28
2022-12-11T17:46:53.714Z,7.28
2022-12-11T17:49:22.413Z,6.53
2022-12-11T17:54:25.892Z,6.43
2022-12-11T17:56:55.961Z,7.05
2022-12-11T17:59:25.737Z,9.45
2022-12-11T18:01:58.599Z,5.63
2022-12-11T18:04:27.303Z,9.77
2022-12-11T18:06:58.362Z,7.97
2022-12-11T18:09:30.006Z,8.38
2022-12-11T18:12:00.649Z,6.32
2022-12-11T18:14:32.583Z,9.48
2022-12-11T18:17:12.594Z,7.78
2022-12-11T18:19:56.119Z,6.35
2022-12-11T18:22:25.604Z,6.25
2022-12-11T18:24:58.582Z,6.35
2022-12-11T18:27:51.813Z,7.43
2022-12-11T18:30:32.259Z,6.00
2022-12-11T18:33:06.037Z,5.18
2022-12-11T18:35:36.912Z,7.40
2022-12-11T18:38:08.508Z,5.93
2022-12-11T18:40:37.398Z,6.40
2022-12-11T18:43:08.184Z,6.70
2022-12-11T18:45:36.953Z,7.32
2022-12-11T18:50:35.548Z,6.50
2022-12-11T18:53:06.031Z,4.80
2022-12-11T18:55:45.611Z,4.78
2022-12-11T19:00:48.242Z,3.67
2022-12-11T19:03:17.060Z,6.03
2022-12-11T19:08:16.132Z,5.25
2022-12-11T19:10:52.840Z,3.67
2022-12-11T19:13:22.931Z,4.20
2022-12-11T19:15:51.675Z,5.32
2022-12-11T19:20:58.019Z,3.13
2022-12-11T19:23:34.086Z,4.10
2022-12-11T19:26:22.538Z,5.32
2022-12-11T19:29:49.678Z,3.20
2022-12-11T19:32:31.972Z,2.78
2022-12-11T19:35:59.978Z,4.97
2022-12-11T19:38:55.325Z,3.28
2022-12-11T19:41:37.918Z,5.18
2022-12-11T19:44:19.931Z,4.50
2022-12-11T19:47:04.312Z,3.45
2022-12-11T19:50:31.437Z,4.75
2022-12-11T19:53:15.641Z,3.53
2022-12-11T19:55:53.591Z,1.85
2022-12-11T19:58:22.432Z,2.20
2022-12-11T20:01:09.429Z,3.75
2022-12-11T20:04:00.198Z,4.88
2022-12-11T20:06:41.007Z,4.07
2022-12-11T20:09:19.671Z,3.58
2022-12-11T20:11:50.978Z,6.45
2022-12-11T20:14:22.999Z,3.42
2022-12-11T20:17:10.879Z,3.75
2022-12-11T20:19:48.053Z,3.83
2022-12-11T20:22:24.431Z,4.05
2022-12-11T20:24:56.135Z,4.28
2022-12-11T20:27:31.541Z,3.22
2022-12-11T20:30:32.829Z,4.43
2022-12-11T20:32:53.095Z,3.72
2022-12-11T20:35:35.033Z,4.97
2022-12-11T20:38:05.562Z,3.95
2022-12-11T20:40:39.672Z,4.60
2022-12-11T20:43:08.407Z,4.28
2022-12-11T20:45:48.097Z,5.07
2022-12-11T20:48:17.168Z,4.72
2022-12-11T20:50:56.483Z,4.20
2022-12-11T20:53:35.988Z,5.72
2022-12-11T20:56:12.446Z,6.10
2022-12-11T20:58:41.335Z,7.32
2022-12-11T21:01:16.060Z,6.55
2022-12-11T21:03:45.268Z,8.57
2022-12-11T21:06:23.858Z,5.13
2022-12-11T21:11:25.862Z,5.03
2022-12-11T21:13:54.753Z,6.55
2022-12-11T21:16:24.864Z,7.25
2022-12-11T21:18:56.513Z,8.15
2022-12-11T21:21:27.679Z,5.60
2022-12-11T21:24:13.784Z,6.38
2022-12-11T21:26:44.939Z,6.70
2022-12-11T21:29:14.034Z,10.15
2022-12-11T21:31:49.179Z,11.93
2022-12-11T21:34:25.352Z,8.23
2022-12-11T21:36:58.570Z,10.23
2022-12-11T21:39:29.276Z,10.52
2022-12-11T21:42:00.716Z,9.45
2022-12-11T21:47:19.869Z,12.02
2022-12-11T21:49:48.702Z,12.15
2022-12-11T21:54:52.278Z,12.07
2022-12-11T21:57:28.981Z,16.60
2022-12-11T22:00:00.751Z,10.23
2022-12-11T22:02:52.759Z,15.60
2022-12-11T22:07:51.307Z,17.85
2022-12-11T22:10:20.181Z,16.35
2022-12-11T22:12:48.785Z,23.83
2022-12-11T22:15:17.546Z,19.50
2022-12-11T22:20:16.571Z,19.85
2022-12-11T22:22:48.250Z,21.95
2022-12-11T22:25:18.886Z,28.13
2022-12-11T22:27:47.673Z,32.13
2022-12-11T22:30:20.056Z,29.58
2022-12-11T22:32:58.284Z,39.67
2022-12-11T22:35:27.657Z,35.10
2022-12-11T22:38:17.227Z,31.95
2022-12-11T22:40:48.094Z,37.72
2022-12-11T22:43:17.561Z,24.83
2022-12-11T22:45:48.183Z,40.33
2022-12-11T22:48:17.202Z,38.22
2022-12-11T22:50:46.239Z,32.10
2022-12-11T22:53:15.044Z,35.85
2022-12-11T23:00:50.191Z,30.80
2022-12-11T23:03:21.253Z,30.67
2022-12-11T23:05:50.274Z,36.63
2022-12-11T23:08:19.720Z,38.25
2022-12-11T23:10:48.361Z,35.03
2022-12-11T23:13:18.457Z,35.38
2022-12-11T23:15:47.151Z,34.17
2022-12-11T23:18:15.919Z,35.35
2022-12-11T23:20:45.081Z,34.13
2022-12-11T23:23:14.594Z,37.97
2022-12-11T23:25:46.082Z,31.05
2022-12-11T23:28:17.138Z,39.72
2022-12-11T23:30:47.223Z,29.92
2022-12-11T23:33:17.093Z,38.53
2022-12-11T23:35:56.878Z,28.48
2022-12-11T23:38:32.516Z,33.50
2022-12-11T23:41:11.964Z,33.45
2022-12-11T23:43:48.697Z,29.77
2022-12-11T23:46:45.544Z,31.08
2022-12-11T23:49:18.793Z,30.45
2022-12-11T23:52:04.516Z,31.15
2022-12-11T23:54:43.270Z,26.53
2022-12-11T23:57:19.584Z,29.85
2022-12-11T23:59:48.563Z,33.13
